KEKM

Elkhart Municipal Airport

Elkhart, Indiana, USA
METAR KEKM 250050Z 00000KT 10SM CLR 25/09 A3007 RMK AO2
Observed Flight Rules
May-25 @ 00:50 UTC (12 minutes ago) Visual Flight Rules
Visibility Clouds
10 miles
  • Clear skies
Temperatures Readings
Current 25°C / 77°F
Dewpoint 9°C / 48°F
Humidity 36%
Altimeter 30.07" Hg
Pressure 1018 hPa
Elevation 237
METAR KEKM 250050Z 00000KT 10SM CLR 25/09 A3007 RMK AO2
Observed Flight Rules
May-25 @ 00:50 UTC
(12 minutes ago)
VFR
Clouds
  • Clear skies
Temperature Dewpoint
25°C / 77°F 9°C / 48°F
Humidity Altimeter Pressure
36% 30.07" Hg 1018 hPa